South Londonderry, Pennsylvania
Current Conditions -  °F | °C
As of 11:56 PM on Friday 19 Dec 2014 (Local Time) from KMDT Reporting Station
Scattered Clouds Scattered Clouds  
Wind Chill: 22°   Ceiling: Unl
Heat Index: 29°   Visibility: 10mi
Dew Point: 20°   Wind: 7mph
Humidity: 69%   Direction: 320°NW
Pressure: 30.21"   Gusts: NA
Location:  40.2634°N, 76.626°W
Report Text: KMDT 200456Z 32006KT 10SM SCT042 M02/M07 A3021 RMK AO2 SLP235 T10171067 400501022
Loading
Personal Weather Stations






























Interactive Weather Map New forecast layout! Learn more

10-Day Weather Forecast

Advertisements
Track Severe Weather on mobile